Time;durP1;ratioP1;P1;durP2;ratioP2;P2;SDS_P1;SDS_P2;PMS_P1;PMS_P2;Temp;Humidity;BMP_temperature;BMP_pressure;BME280_temperature;BME280_humidity;BME280_pressure;Samples;Min_cycle;Max_cycle;Signal;HPM_P1;HPM_P2
2024/01/14 00:00:09;;;;;;;6.70;1.87;;;3.70;99.90;;;;;;5019720;28;20467;-63
2024/01/14 00:02:40;;;;;;;4.73;1.70;;;3.70;99.90;;;;;;5019407;28;20838;-64
2024/01/14 00:05:09;;;;;;;5.37;1.63;;;3.70;99.90;;;;;;5010988;28;20936;-63
2024/01/14 00:07:37;;;;;;;8.83;2.50;;;3.70;99.90;;;;;;5024138;28;20471;-63
2024/01/14 00:10:06;;;;;;;5.70;2.43;;;3.70;99.90;;;;;;5017564;28;20504;-64
2024/01/14 00:12:34;;;;;;;9.90;2.20;;;3.70;99.90;;;;;;5018358;28;20514;-63
2024/01/14 00:15:01;;;;;;;8.70;3.03;;;3.60;99.90;;;;;;5018638;28;20876;-64
2024/01/14 00:17:29;;;;;;;6.80;1.83;;;3.60;99.90;;;;;;5012594;28;20471;-63
2024/01/14 00:20:04;;;;;;;6.90;2.03;;;3.60;99.90;;;;;;5019292;28;20855;-63
2024/01/14 00:22:32;;;;;;;9.83;2.30;;;3.60;99.90;;;;;;5020586;28;21021;-63
2024/01/14 00:25:00;;;;;;;9.87;2.30;;;3.60;99.90;;;;;;5018133;28;20575;-63
2024/01/14 00:27:28;;;;;;;6.47;1.90;;;3.70;99.90;;;;;;5020953;28;20567;-63
2024/01/14 00:29:57;;;;;;;8.00;1.83;;;3.70;99.90;;;;;;5020638;28;20475;-63
2024/01/14 00:32:26;;;;;;;5.53;2.80;;;3.70;99.90;;;;;;5015562;28;20502;-63
2024/01/14 00:34:54;;;;;;;9.90;2.60;;;3.70;99.90;;;;;;5023198;28;20471;-63
2024/01/14 00:37:24;;;;;;;5.33;2.53;;;3.70;99.90;;;;;;5016995;28;20471;-63
2024/01/14 00:39:52;;;;;;;6.60;1.87;;;3.80;99.90;;;;;;5014772;28;20472;-61
2024/01/14 00:42:20;;;;;;;8.73;2.40;;;3.80;99.90;;;;;;5021120;28;20609;-63
2024/01/14 00:44:48;;;;;;;10.87;2.30;;;3.80;99.90;;;;;;5018078;28;21003;-63
2024/01/14 00:47:16;;;;;;;8.20;2.70;;;3.80;99.90;;;;;;5019353;28;20502;-63
2024/01/14 00:49:44;;;;;;;12.00;2.87;;;3.80;99.90;;;;;;5014558;28;20547;-62
2024/01/14 00:52:12;;;;;;;8.03;2.53;;;3.80;99.90;;;;;;5021648;28;20635;-63
2024/01/14 00:54:43;;;;;;;9.20;2.63;;;3.80;99.90;;;;;;5017423;28;20490;-63
2024/01/14 00:57:11;;;;;;;7.57;2.00;;;3.80;99.90;;;;;;5020467;28;20503;-63
2024/01/14 00:59:39;;;;;;;9.97;3.00;;;3.80;99.90;;;;;;5021627;28;20481;-63
2024/01/14 01:02:07;;;;;;;5.43;2.40;;;3.80;99.90;;;;;;5019437;28;20639;-63
2024/01/14 01:04:35;;;;;;;10.70;2.40;;;3.80;99.90;;;;;;5019746;28;20514;-63
2024/01/14 01:07:03;;;;;;;8.87;2.10;;;3.80;99.90;;;;;;5020719;28;20479;-63
2024/01/14 01:09:31;;;;;;;10.33;2.70;;;3.80;99.90;;;;;;5012165;28;20480;-63
2024/01/14 01:12:01;;;;;;;9.17;2.80;;;3.80;99.90;;;;;;5018211;28;21418;-63
2024/01/14 01:14:29;;;;;;;5.60;2.43;;;3.80;99.90;;;;;;5021071;28;20471;-63
2024/01/14 01:16:57;;;;;;;5.73;2.10;;;3.80;99.90;;;;;;5021265;28;20533;-62
2024/01/14 01:19:25;;;;;;;9.63;2.90;;;3.80;99.90;;;;;;5019061;28;20550;-63
2024/01/14 01:21:53;;;;;;;7.20;2.67;;;3.80;99.90;;;;;;5013212;28;20490;-63
2024/01/14 01:24:21;;;;;;;8.13;2.20;;;3.80;99.90;;;;;;5012803;28;21055;-63
2024/01/14 01:26:49;;;;;;;10.60;2.90;;;3.80;99.90;;;;;;5019486;28;20471;-62
2024/01/14 01:29:19;;;;;;;10.87;2.90;;;3.80;99.90;;;;;;5016910;28;21014;-63
2024/01/14 01:31:47;;;;;;;13.93;2.70;;;3.80;99.90;;;;;;5023263;28;20498;-63
2024/01/14 01:34:22;;;;;;;9.00;2.70;;;3.80;99.90;;;;;;5018523;28;20682;-63
2024/01/14 01:36:50;;;;;;;13.33;3.80;;;3.80;99.90;;;;;;5029028;23;20512;-59
2024/01/14 01:39:19;;;;;;;9.83;3.00;;;3.80;99.90;;;;;;4996782;28;20969;-59
2024/01/14 01:41:47;;;;;;;8.83;2.30;;;3.80;99.90;;;;;;5000928;28;20472;-59
2024/01/14 01:44:15;;;;;;;10.10;2.13;;;3.90;99.90;;;;;;4998232;28;20844;-59
2024/01/14 01:46:45;;;;;;;12.00;2.80;;;3.90;99.90;;;;;;5002003;28;20490;-59
2024/01/14 01:49:13;;;;;;;11.13;2.10;;;3.90;99.90;;;;;;4996217;28;20997;-59
2024/01/14 01:51:43;;;;;;;8.50;1.77;;;3.90;99.90;;;;;;4989984;28;20468;-60
2024/01/14 01:54:11;;;;;;;5.97;1.67;;;3.90;99.90;;;;;;4991865;28;20604;-58
2024/01/14 01:56:40;;;;;;;6.10;1.50;;;4.00;99.90;;;;;;5006134;28;21039;-59
2024/01/14 01:59:09;;;;;;;5.23;1.33;;;4.00;99.90;;;;;;4994834;28;20606;-58
2024/01/14 02:01:38;;;;;;;3.57;1.10;;;4.00;99.90;;;;;;4999398;28;20948;-60
2024/01/14 02:04:08;;;;;;;4.33;1.20;;;4.00;99.90;;;;;;4989178;28;20571;-58
2024/01/14 02:06:39;;;;;;;3.23;1.13;;;4.00;99.90;;;;;;5000800;28;20496;-59
2024/01/14 02:09:08;;;;;;;2.17;0.80;;;3.90;99.90;;;;;;5000679;28;20519;-59
2024/01/14 02:11:36;;;;;;;3.13;2.53;;;3.90;99.90;;;;;;4994044;28;20468;-59
2024/01/14 02:14:04;;;;;;;2.97;1.10;;;3.90;99.90;;;;;;4997467;28;20497;-59
2024/01/14 02:16:32;;;;;;;6.33;1.00;;;3.90;99.90;;;;;;4994164;28;20929;-59
2024/01/14 02:19:01;;;;;;;1.93;0.93;;;3.90;99.90;;;;;;4998433;28;20483;-59
2024/01/14 02:21:35;;;;;;;5.00;0.93;;;3.90;99.90;;;;;;4999569;28;20998;-62
2024/01/14 02:24:21;;;;;;;2.60;1.00;;;3.80;99.90;;;;;;5000128;28;20917;-62
2024/01/14 02:26:49;;;;;;;4.40;1.10;;;3.80;99.90;;;;;;5000680;28;20842;-61
2024/01/14 02:29:18;;;;;;;4.13;1.13;;;3.70;99.90;;;;;;5000984;28;20968;-62
2024/01/14 02:31:47;;;;;;;4.67;1.10;;;3.70;99.90;;;;;;4996567;28;21197;-61
2024/01/14 02:34:15;;;;;;;3.50;1.20;;;3.70;99.90;;;;;;4996079;28;20579;-63
2024/01/14 02:36:43;;;;;;;4.07;1.20;;;3.70;99.90;;;;;;5001196;28;20506;-63
2024/01/14 02:39:11;;;;;;;4.70;1.13;;;3.60;99.90;;;;;;4992589;28;20471;-61
2024/01/14 02:41:41;;;;;;;2.67;1.00;;;3.60;99.90;;;;;;5001238;28;20530;-62
2024/01/14 02:44:09;;;;;;;2.20;1.20;;;3.50;99.90;;;;;;5004872;28;21035;-60
2024/01/14 02:46:37;;;;;;;2.97;0.90;;;3.50;99.90;;;;;;4990953;28;21091;-60
2024/01/14 02:49:05;;;;;;;7.07;1.20;;;3.50;99.90;;;;;;5004221;28;20523;-61
2024/01/14 02:51:33;;;;;;;3.90;1.07;;;3.50;99.90;;;;;;5003024;28;21032;-60
2024/01/14 02:54:02;;;;;;;2.93;1.13;;;3.50;99.90;;;;;;4995422;28;20499;-60
2024/01/14 02:56:30;;;;;;;4.17;1.40;;;3.40;99.90;;;;;;4997838;28;20586;-62
2024/01/14 02:58:59;;;;;;;4.47;1.27;;;3.40;99.90;;;;;;4997104;28;20481;-61
2024/01/14 03:01:28;;;;;;;3.73;0.90;;;3.30;99.90;;;;;;4995914;28;20506;-61
2024/01/14 03:03:56;;;;;;;4.30;1.07;;;3.30;99.90;;;;;;5000158;28;20468;-61
2024/01/14 03:06:24;;;;;;;4.83;1.47;;;3.30;99.90;;;;;;4999422;28;20530;-61
2024/01/14 03:08:53;;;;;;;5.13;1.30;;;3.20;99.90;;;;;;4992045;28;20554;-62
2024/01/14 03:11:21;;;;;;;4.90;1.40;;;3.20;99.90;;;;;;4996308;28;20469;-60
2024/01/14 03:13:49;;;;;;;6.63;1.23;;;3.20;99.90;;;;;;4998010;28;20941;-60
2024/01/14 03:16:19;;;;;;;8.10;1.50;;;3.20;99.90;;;;;;4997841;28;20500;-60
2024/01/14 03:18:47;;;;;;;3.33;1.60;;;3.20;99.90;;;;;;4997210;28;20866;-61
2024/01/14 03:21:18;;;;;;;5.20;2.57;;;3.20;99.90;;;;;;4995140;28;20480;-60
2024/01/14 03:23:46;;;;;;;6.17;1.20;;;3.20;99.90;;;;;;4999354;28;21057;-60
2024/01/14 03:26:14;;;;;;;3.63;1.17;;;3.20;99.90;;;;;;4997604;28;20496;-61
2024/01/14 03:28:42;;;;;;;6.70;1.47;;;3.10;99.90;;;;;;4996579;28;20913;-60
2024/01/14 03:31:15;;;;;;;4.67;1.70;;;3.20;99.90;;;;;;4996469;28;20487;-62
2024/01/14 03:33:45;;;;;;;9.17;1.90;;;3.20;99.90;;;;;;4993662;28;20539;-60
2024/01/14 03:36:15;;;;;;;9.17;3.37;;;3.10;99.90;;;;;;4995516;28;21088;-60
2024/01/14 03:38:43;;;;;;;3.70;1.27;;;3.10;99.90;;;;;;4995428;28;20472;-60
2024/01/14 03:41:12;;;;;;;5.10;1.47;;;3.10;99.90;;;;;;4996029;28;20480;-61
2024/01/14 03:43:40;;;;;;;4.90;1.40;;;3.10;99.90;;;;;;4996151;28;20957;-62
2024/01/14 03:46:08;;;;;;;10.63;1.80;;;3.00;99.90;;;;;;4999973;28;20609;-62
2024/01/14 03:48:37;;;;;;;5.20;1.50;;;3.00;99.90;;;;;;4995993;28;20472;-61
2024/01/14 03:51:07;;;;;;;4.00;1.33;;;3.10;99.90;;;;;;4994776;28;20587;-61
2024/01/14 03:53:35;;;;;;;5.23;1.60;;;3.00;99.90;;;;;;4989884;28;20989;-62
2024/01/14 03:56:03;;;;;;;6.93;2.70;;;3.10;99.90;;;;;;4999640;28;20488;-61
2024/01/14 03:58:31;;;;;;;6.03;1.57;;;3.10;99.90;;;;;;4998702;28;20965;-61
2024/01/14 04:00:59;;;;;;;3.50;1.07;;;3.10;99.90;;;;;;4993207;28;21201;-61
2024/01/14 04:03:27;;;;;;;5.53;1.40;;;3.10;99.90;;;;;;4998271;28;20493;-61
2024/01/14 04:05:56;;;;;;;4.70;1.93;;;3.10;99.90;;;;;;4993344;28;20501;-60
2024/01/14 04:08:25;;;;;;;6.63;2.60;;;3.10;99.90;;;;;;4997528;28;20512;-59
2024/01/14 04:10:53;;;;;;;5.67;1.40;;;3.10;99.90;;;;;;4999755;28;20559;-61
2024/01/14 04:13:21;;;;;;;6.53;1.57;;;3.10;99.90;;;;;;4996052;28;20500;-61
2024/01/14 04:15:49;;;;;;;8.70;1.70;;;3.20;99.90;;;;;;4999879;28;21041;-60
2024/01/14 04:18:17;;;;;;;6.47;1.30;;;3.20;99.90;;;;;;4993063;28;20581;-61
2024/01/14 04:20:45;;;;;;;6.10;1.47;;;3.20;99.90;;;;;;4997836;28;20477;-61
2024/01/14 04:23:13;;;;;;;4.23;1.20;;;3.20;99.90;;;;;;4993809;28;20837;-59
2024/01/14 04:25:43;;;;;;;7.80;2.03;;;3.30;99.90;;;;;;4992998;28;20488;-60
2024/01/14 04:28:11;;;;;;;7.00;1.60;;;3.20;99.90;;;;;;4994488;28;20476;-62
2024/01/14 04:30:39;;;;;;;4.40;1.30;;;3.20;99.90;;;;;;5000283;28;20472;-61
2024/01/14 04:33:07;;;;;;;3.87;1.03;;;3.20;99.90;;;;;;4994878;28;20979;-62
2024/01/14 04:35:35;;;;;;;3.20;1.20;;;3.10;99.90;;;;;;4991509;28;21012;-61
2024/01/14 04:38:03;;;;;;;6.67;2.00;;;3.10;99.90;;;;;;4989660;28;23796;-60
2024/01/14 04:40:31;;;;;;;5.60;2.00;;;3.10;99.90;;;;;;4993117;28;20551;-61
2024/01/14 04:43:00;;;;;;;4.10;1.30;;;3.10;99.90;;;;;;4993085;28;20991;-61
2024/01/14 04:45:28;;;;;;;3.80;1.27;;;3.20;99.90;;;;;;4995742;28;20471;-61
2024/01/14 04:47:57;;;;;;;3.63;1.03;;;3.20;99.90;;;;;;4992801;28;20473;-60
2024/01/14 04:50:25;;;;;;;9.17;1.90;;;3.20;99.90;;;;;;4992218;28;20487;-60
2024/01/14 04:52:53;;;;;;;3.03;1.30;;;3.10;99.90;;;;;;4994077;28;20523;-62
2024/01/14 04:55:21;;;;;;;2.50;0.90;;;3.20;99.90;;;;;;4995273;28;20499;-61
2024/01/14 04:57:49;;;;;;;3.70;1.00;;;3.10;99.90;;;;;;4991402;28;20961;-61
2024/01/14 05:00:19;;;;;;;3.87;1.00;;;3.10;99.90;;;;;;4993472;28;20559;-61
2024/01/14 05:02:47;;;;;;;3.63;1.03;;;3.10;99.90;;;;;;4999097;28;20472;-61
2024/01/14 05:05:15;;;;;;;4.17;1.27;;;3.10;99.90;;;;;;4992434;28;21076;-61
2024/01/14 05:07:45;;;;;;;5.90;1.37;;;3.10;99.90;;;;;;4998287;28;20609;-62
2024/01/14 05:10:13;;;;;;;6.67;1.57;;;3.10;99.90;;;;;;4996285;28;20977;-61
2024/01/14 05:12:41;;;;;;;3.30;1.03;;;3.10;99.90;;;;;;4999316;28;20500;-61
2024/01/14 05:15:09;;;;;;;6.93;1.40;;;3.10;99.90;;;;;;4993832;28;20496;-61
2024/01/14 05:17:39;;;;;;;4.90;1.30;;;3.10;99.90;;;;;;4999508;28;20492;-61
2024/01/14 05:20:09;;;;;;;3.73;1.10;;;3.20;99.90;;;;;;4993911;28;20500;-60
2024/01/14 05:22:37;;;;;;;5.00;1.40;;;3.20;99.90;;;;;;4999250;28;20500;-60
2024/01/14 05:25:06;;;;;;;5.30;1.50;;;3.20;99.90;;;;;;4997781;28;20472;-61
2024/01/14 05:27:34;;;;;;;4.07;1.30;;;3.20;99.90;;;;;;4998022;28;20502;-62
2024/01/14 05:30:03;;;;;;;6.97;1.60;;;3.20;99.90;;;;;;5000786;28;20841;-62
2024/01/14 05:32:32;;;;;;;8.17;1.60;;;3.20;99.90;;;;;;4997139;28;20984;-61
2024/01/14 05:35:01;;;;;;;9.93;1.33;;;3.20;99.90;;;;;;4996313;28;20488;-61
2024/01/14 05:37:29;;;;;;;5.30;1.10;;;3.20;99.90;;;;;;4989817;28;20626;-61
2024/01/14 05:39:57;;;;;;;3.90;1.30;;;3.30;99.90;;;;;;4987473;28;20742;-61
2024/01/14 05:42:25;;;;;;;7.10;1.50;;;3.30;99.90;;;;;;5000136;28;20714;-60
2024/01/14 05:44:53;;;;;;;5.77;1.90;;;3.30;99.90;;;;;;4998239;28;20911;-61
2024/01/14 05:47:22;;;;;;;5.43;1.30;;;3.30;99.90;;;;;;5002517;28;20845;-60
2024/01/14 05:49:50;;;;;;;7.90;2.03;;;3.30;99.90;;;;;;4992920;28;20476;-59
2024/01/14 05:52:20;;;;;;;3.53;1.50;;;3.30;99.90;;;;;;4990571;28;20480;-61
2024/01/14 05:54:48;;;;;;;5.50;1.30;;;3.20;99.90;;;;;;4998147;28;20491;-62
2024/01/14 05:57:16;;;;;;;7.80;1.40;;;3.20;99.90;;;;;;4998709;28;21070;-61
2024/01/14 05:59:44;;;;;;;4.90;1.40;;;3.20;99.90;;;;;;4994916;28;20469;-61
2024/01/14 06:02:11;;;;;;;5.03;1.67;;;3.20;99.90;;;;;;4996475;28;20697;-60
2024/01/14 06:04:40;;;;;;;7.37;1.10;;;3.30;99.90;;;;;;5003064;28;20472;-60
2024/01/14 06:07:09;;;;;;;6.37;2.20;;;3.30;99.90;;;;;;4992502;28;20991;-61
2024/01/14 06:09:38;;;;;;;4.67;1.57;;;3.20;99.90;;;;;;4998722;28;20764;-61
2024/01/14 06:12:07;;;;;;;4.50;1.10;;;3.20;99.90;;;;;;4989163;28;20467;-61
2024/01/14 06:14:36;;;;;;;5.00;1.30;;;3.30;99.90;;;;;;4992852;28;20851;-60
2024/01/14 06:17:04;;;;;;;6.90;3.33;;;3.20;99.90;;;;;;4998323;28;21103;-61
2024/01/14 06:19:32;;;;;;;4.93;1.00;;;3.20;99.90;;;;;;5000157;28;20501;-60
2024/01/14 06:22:01;;;;;;;7.97;1.73;;;3.20;99.90;;;;;;4991502;28;21053;-61
2024/01/14 06:24:29;;;;;;;7.10;1.50;;;3.20;99.90;;;;;;4996728;28;20558;-61
2024/01/14 06:26:58;;;;;;;1.73;1.00;;;3.20;99.90;;;;;;4994248;28;20488;-60
2024/01/14 06:29:26;;;;;;;7.57;1.90;;;3.20;99.90;;;;;;4995325;28;20503;-60
2024/01/14 06:31:54;;;;;;;8.00;1.50;;;3.20;99.90;;;;;;5000980;28;20472;-61
2024/01/14 06:34:22;;;;;;;6.30;1.40;;;3.20;99.90;;;;;;4997963;28;20534;-61
2024/01/14 06:36:50;;;;;;;2.50;1.20;;;3.20;99.90;;;;;;4987384;28;20561;-61
2024/01/14 06:39:18;;;;;;;8.50;2.67;;;3.20;99.90;;;;;;4993589;28;21790;-60
2024/01/14 06:41:46;;;;;;;6.03;2.53;;;3.20;99.90;;;;;;4996870;28;21095;-61
2024/01/14 06:44:19;;;;;;;9.30;1.60;;;3.20;99.90;;;;;;5001924;28;20471;-60
2024/01/14 06:46:48;;;;;;;6.00;1.80;;;3.30;99.90;;;;;;4997193;28;20515;-61
2024/01/14 06:49:16;;;;;;;7.47;1.70;;;3.30;99.90;;;;;;4993320;28;20573;-60
2024/01/14 06:51:44;;;;;;;8.47;1.83;;;3.40;99.90;;;;;;4997050;28;20476;-61
2024/01/14 06:54:12;;;;;;;7.27;2.97;;;3.30;99.90;;;;;;5003647;28;20484;-60
2024/01/14 06:56:44;;;;;;;5.20;1.40;;;3.30;99.90;;;;;;4995936;28;20543;-62
2024/01/14 06:59:14;;;;;;;4.23;1.10;;;3.30;99.90;;;;;;5000616;28;20490;-61
2024/01/14 07:01:44;;;;;;;5.77;1.40;;;3.40;99.90;;;;;;4992970;28;20472;-61
2024/01/14 07:04:12;;;;;;;3.60;1.33;;;3.40;99.90;;;;;;5001131;28;20852;-61
2024/01/14 07:06:40;;;;;;;6.23;1.50;;;3.30;99.90;;;;;;4999102;28;20491;-60
2024/01/14 07:09:10;;;;;;;5.43;1.30;;;3.30;99.90;;;;;;4998773;28;20476;-60
2024/01/14 07:11:39;;;;;;;5.10;1.87;;;3.30;99.90;;;;;;4998004;28;20479;-61
2024/01/14 07:14:07;;;;;;;4.37;1.27;;;3.30;99.90;;;;;;4994572;28;20499;-62
2024/01/14 07:16:35;;;;;;;5.87;1.60;;;3.30;99.90;;;;;;4993719;28;20496;-61
2024/01/14 07:19:04;;;;;;;3.73;1.53;;;3.30;99.90;;;;;;4996354;28;20476;-61
2024/01/14 07:21:33;;;;;;;4.03;1.60;;;3.40;99.90;;;;;;4996905;28;20478;-61
2024/01/14 07:24:01;;;;;;;6.40;1.50;;;3.40;99.90;;;;;;4996794;28;20483;-61
2024/01/14 07:26:29;;;;;;;5.73;1.80;;;3.40;99.90;;;;;;4997305;28;20992;-61
2024/01/14 07:28:57;;;;;;;5.67;1.77;;;3.40;99.90;;;;;;4997713;28;20626;-60
2024/01/14 07:31:30;;;;;;;4.13;1.67;;;3.40;99.90;;;;;;4990178;28;20540;-60
2024/01/14 07:33:58;;;;;;;3.27;1.53;;;3.40;99.90;;;;;;4993643;28;20468;-61
2024/01/14 07:36:28;;;;;;;3.80;1.40;;;3.40;99.90;;;;;;4997529;28;20519;-61
2024/01/14 07:38:58;;;;;;;7.37;1.70;;;3.40;99.90;;;;;;4997864;28;20464;-61
2024/01/14 07:41:26;;;;;;;3.40;1.17;;;3.40;99.90;;;;;;5024873;23;20571;-62
2024/01/14 07:43:54;;;;;;;4.07;1.70;;;3.40;99.90;;;;;;5021802;28;20574;-62
2024/01/14 07:46:22;;;;;;;3.30;1.23;;;3.40;99.90;;;;;;5009998;28;20904;-63
2024/01/14 07:48:51;;;;;;;6.30;1.33;;;3.50;99.90;;;;;;5003408;28;20907;-65
2024/01/14 07:51:19;;;;;;;6.80;1.40;;;3.50;99.90;;;;;;5000797;28;20598;-63
2024/01/14 07:53:51;;;;;;;4.50;1.10;;;3.50;99.90;;;;;;4994230;28;20584;-63
2024/01/14 07:56:21;;;;;;;2.87;1.37;;;3.50;99.90;;;;;;4999266;28;20578;-65
2024/01/14 07:58:49;;;;;;;3.50;1.23;;;3.50;99.90;;;;;;5001069;28;20488;-65
2024/01/14 08:01:17;;;;;;;4.40;2.00;;;3.40;99.90;;;;;;5003472;28;20503;-63
2024/01/14 08:03:46;;;;;;;4.13;1.37;;;3.40;99.90;;;;;;4994090;28;20475;-63
2024/01/14 08:06:20;;;;;;;5.40;1.27;;;3.40;99.90;;;;;;4985482;28;20473;-63
2024/01/14 08:08:48;;;;;;;4.23;1.10;;;3.40;99.90;;;;;;4992860;28;20483;-65
2024/01/14 08:11:18;;;;;;;4.57;1.10;;;3.40;99.90;;;;;;4990994;28;20519;-65
2024/01/14 08:13:46;;;;;;;2.90;1.10;;;3.40;99.90;;;;;;4989213;28;20476;-62
2024/01/14 08:16:14;;;;;;;3.77;1.43;;;3.40;99.90;;;;;;4996291;28;20579;-62
2024/01/14 08:18:43;;;;;;;6.53;1.97;;;3.40;99.90;;;;;;5001683;28;20827;-64
2024/01/14 08:21:11;;;;;;;3.87;1.53;;;3.40;99.90;;;;;;4987228;28;20720;-62
2024/01/14 08:23:39;;;;;;;4.80;1.43;;;3.40;99.90;;;;;;4994654;28;20555;-63
2024/01/14 08:26:07;;;;;;;3.17;0.90;;;3.40;99.90;;;;;;4992744;28;20627;-62
2024/01/14 08:28:37;;;;;;;5.10;1.20;;;3.50;99.90;;;;;;4995092;28;20518;-63
2024/01/14 08:31:05;;;;;;;5.13;1.43;;;3.50;99.90;;;;;;4989807;28;20917;-62
2024/01/14 08:33:34;;;;;;;3.00;1.10;;;3.50;99.90;;;;;;4999944;28;20480;-63
2024/01/14 08:36:02;;;;;;;4.80;1.40;;;3.50;99.90;;;;;;4998416;28;20538;-63
2024/01/14 08:38:31;;;;;;;2.67;1.10;;;3.50;99.90;;;;;;4985237;28;20550;-62
2024/01/14 08:40:58;;;;;;;4.73;1.30;;;3.50;99.90;;;;;;4997079;28;20649;-66
2024/01/14 08:43:26;;;;;;;4.53;1.30;;;3.50;99.90;;;;;;4998547;28;20476;-64
2024/01/14 08:45:55;;;;;;;3.83;0.97;;;3.50;99.90;;;;;;4996526;28;20590;-64
2024/01/14 08:48:23;;;;;;;4.53;1.23;;;3.50;99.90;;;;;;4993318;28;20476;-65
2024/01/14 08:50:53;;;;;;;2.53;1.33;;;3.60;99.90;;;;;;4993994;28;20492;-64
2024/01/14 08:53:21;;;;;;;6.13;1.40;;;3.60;99.90;;;;;;4996862;28;20576;-63
2024/01/14 08:55:49;;;;;;;3.80;0.83;;;3.60;99.90;;;;;;5002429;28;20476;-65
2024/01/14 08:58:17;;;;;;;2.70;1.07;;;3.60;99.90;;;;;;4999646;28;21067;-64
2024/01/14 09:00:45;;;;;;;4.07;1.50;;;3.50;99.90;;;;;;4995681;28;20993;-64
2024/01/14 09:03:14;;;;;;;2.40;1.10;;;3.60;99.90;;;;;;4998450;28;20647;-64
2024/01/14 09:05:42;;;;;;;6.00;1.33;;;3.60;99.90;;;;;;4995516;28;21052;-64
2024/01/14 09:08:10;;;;;;;3.00;1.30;;;3.60;99.90;;;;;;4993057;28;20472;-64
2024/01/14 09:10:39;;;;;;;4.03;1.20;;;3.60;99.90;;;;;;4994928;28;20500;-64
2024/01/14 09:13:07;;;;;;;3.20;1.63;;;3.60;99.90;;;;;;4996470;28;20526;-64
2024/01/14 09:15:35;;;;;;;4.37;1.33;;;3.70;99.90;;;;;;4989048;28;20558;-68
2024/01/14 09:18:03;;;;;;;3.90;1.20;;;3.60;99.90;;;;;;4995665;28;20565;-68
2024/01/14 09:20:33;;;;;;;2.67;1.30;;;3.60;99.90;;;;;;4989760;28;20615;-63
2024/01/14 09:23:01;;;;;;;5.17;1.70;;;3.60;99.90;;;;;;4998889;28;20504;-64
2024/01/14 09:25:29;;;;;;;4.30;1.77;;;3.70;99.90;;;;;;4996115;28;20488;-65
2024/01/14 09:27:57;;;;;;;4.63;1.40;;;3.80;99.90;;;;;;4996378;28;20985;-64
2024/01/14 09:30:25;;;;;;;4.13;1.60;;;3.80;99.90;;;;;;4992951;28;20567;-64
2024/01/14 09:32:56;;;;;;;5.90;1.77;;;3.80;99.90;;;;;;4970048;28;20484;-65
2024/01/14 09:35:24;;;;;;;4.90;1.93;;;3.80;99.90;;;;;;4976505;28;20478;-63
2024/01/14 09:37:54;;;;;;;5.97;1.70;;;3.80;99.90;;;;;;4973094;28;20972;-69
2024/01/14 09:40:23;;;;;;;4.87;1.67;;;3.80;99.90;;;;;;4974912;28;20519;-64
2024/01/14 09:42:52;;;;;;;5.37;2.00;;;3.90;99.90;;;;;;4983730;28;20491;-64
2024/01/14 09:45:21;;;;;;;3.70;1.90;;;3.90;99.90;;;;;;4960071;28;20866;-65
2024/01/14 09:47:59;;;;;;;4.03;1.83;;;3.90;99.90;;;;;;4969050;28;20968;-64
2024/01/14 09:50:27;;;;;;;4.33;2.00;;;4.00;99.90;;;;;;4994000;28;20487;-64
2024/01/14 09:52:58;;;;;;;2.70;1.80;;;4.00;99.90;;;;;;4994983;28;20592;-65
2024/01/14 09:55:27;;;;;;;4.17;2.20;;;4.00;99.90;;;;;;4996964;28;21021;-64
2024/01/14 09:58:00;;;;;;;5.60;2.90;;;4.00;99.90;;;;;;4987992;28;20488;-64
2024/01/14 10:00:30;;;;;;;5.67;2.13;;;4.00;99.90;;;;;;4998156;28;22044;-64
2024/01/14 10:02:59;;;;;;;4.20;2.00;;;4.10;99.90;;;;;;4982064;28;20510;-64
2024/01/14 10:05:31;;;;;;;4.83;1.80;;;4.00;99.90;;;;;;4990953;28;20545;-64
2024/01/14 10:08:00;;;;;;;5.50;2.20;;;4.00;99.90;;;;;;4993538;28;20773;-70
2024/01/14 10:10:29;;;;;;;5.87;2.10;;;4.00;99.90;;;;;;4984290;28;21098;-63
2024/01/14 10:12:58;;;;;;;5.37;1.97;;;3.90;99.90;;;;;;4981814;28;21206;-64
2024/01/14 10:15:26;;;;;;;5.40;2.40;;;3.80;99.90;;;;;;4987945;28;20582;-64
2024/01/14 10:17:54;;;;;;;6.60;2.60;;;3.80;99.90;;;;;;4997641;28;21244;-63
2024/01/14 10:20:22;;;;;;;7.80;3.00;;;3.80;99.90;;;;;;5008647;28;20497;-64
2024/01/14 10:22:51;;;;;;;5.47;2.20;;;3.80;99.90;;;;;;4990689;28;25569;-64
2024/01/14 10:25:20;;;;;;;2.93;2.23;;;3.70;99.90;;;;;;5001793;28;20982;-64
2024/01/14 10:27:49;;;;;;;3.67;1.90;;;3.80;99.90;;;;;;5000110;28;20560;-64
2024/01/14 10:30:17;;;;;;;6.33;1.80;;;3.80;99.90;;;;;;4999084;28;21915;-64
2024/01/14 10:32:46;;;;;;;5.07;1.47;;;3.80;99.90;;;;;;5004188;28;20495;-63
2024/01/14 10:35:34;;;;;;;3.00;2.00;;;3.90;99.90;;;;;;5012354;28;20970;-63
2024/01/14 10:38:03;;;;;;;7.50;2.13;;;3.90;99.90;;;;;;5001022;28;21005;-64
2024/01/14 10:40:32;;;;;;;6.23;2.07;;;3.90;99.90;;;;;;5000150;28;20865;-63
2024/01/14 10:43:02;;;;;;;5.13;1.93;;;3.90;99.90;;;;;;4997976;28;21071;-64
2024/01/14 10:45:30;;;;;;;4.20;1.70;;;3.90;99.90;;;;;;4996278;28;20499;-63
2024/01/14 10:48:02;;;;;;;4.73;2.10;;;3.90;99.90;;;;;;5001524;28;20995;-64
2024/01/14 10:50:33;;;;;;;4.50;1.60;;;3.90;99.90;;;;;;4994963;28;20491;-64
2024/01/14 10:53:21;;;;;;;5.13;2.03;;;4.00;99.90;;;;;;4997257;28;20463;-64
2024/01/14 10:55:56;;;;;;;5.37;1.70;;;3.90;99.90;;;;;;5015772;28;20589;-64
2024/01/14 10:58:26;;;;;;;5.43;1.97;;;3.90;99.90;;;;;;4999438;28;20596;-63
2024/01/14 11:00:58;;;;;;;5.00;2.70;;;4.00;99.90;;;;;;4997295;28;20492;-63
2024/01/14 11:03:28;;;;;;;4.40;2.37;;;3.90;99.90;;;;;;5002520;28;20478;-65
2024/01/14 11:05:58;;;;;;;1.97;1.77;;;3.90;99.90;;;;;;5006588;28;21032;-63
2024/01/14 11:08:27;;;;;;;3.93;2.17;;;3.90;99.90;;;;;;5009810;28;20501;-64
2024/01/14 11:10:57;;;;;;;6.20;2.00;;;4.00;99.90;;;;;;5000284;28;21362;-64
2024/01/14 11:13:30;;;;;;;3.70;1.90;;;4.00;99.90;;;;;;5019188;28;20583;-64
2024/01/14 11:16:04;;;;;;;6.27;2.10;;;4.00;99.90;;;;;;5025334;28;20555;-63
2024/01/14 11:18:37;;;;;;;1.93;1.70;;;4.00;99.90;;;;;;5008456;28;20591;-63
2024/01/14 11:21:20;;;;;;;5.40;2.10;;;4.00;99.90;;;;;;5007174;28;20601;-63
2024/01/14 11:24:09;;;;;;;2.73;1.40;;;4.00;99.90;;;;;;4978619;28;20510;-64
2024/01/14 11:26:39;;;;;;;5.47;2.13;;;3.90;99.90;;;;;;4973063;28;20580;-63
2024/01/14 11:29:07;;;;;;;3.67;2.00;;;4.00;99.90;;;;;;4997287;28;20495;-63
2024/01/14 11:32:05;;;;;;;4.40;1.57;;;3.90;99.90;;;;;;4994742;28;20491;-63
2024/01/14 11:34:54;;;;;;;3.83;1.70;;;3.90;99.90;;;;;;5000932;28;21020;-64
2024/01/14 11:37:48;;;;;;;5.43;1.90;;;3.90;99.90;;;;;;4992425;28;21408;-64
2024/01/14 11:40:27;;;;;;;2.47;1.60;;;4.00;99.90;;;;;;4986649;28;20476;-63
2024/01/14 11:43:07;;;;;;;3.93;1.53;;;4.00;99.90;;;;;;4986974;28;21149;-63
2024/01/14 11:45:37;;;;;;;2.30;1.30;;;4.00;99.90;;;;;;4995783;28;21452;-63
2024/01/14 11:48:08;;;;;;;2.70;1.40;;;4.10;99.90;;;;;;5001329;28;20486;-64
2024/01/14 11:50:38;;;;;;;3.23;1.50;;;4.00;99.90;;;;;;5001344;28;20510;-64
2024/01/14 11:53:08;;;;;;;2.83;1.50;;;4.00;99.90;;;;;;5008807;28;22054;-63
2024/01/14 11:55:37;;;;;;;3.27;1.40;;;4.00;99.90;;;;;;5010541;28;20483;-63
2024/01/14 11:58:14;;;;;;;5.80;1.77;;;4.00;99.90;;;;;;5000642;28;20598;-63
2024/01/14 12:00:43;;;;;;;3.93;1.47;;;4.00;99.90;;;;;;5002229;28;20851;-65
2024/01/14 12:03:13;;;;;;;3.40;1.43;;;4.10;99.90;;;;;;5002514;28;20491;-62
2024/01/14 12:05:43;;;;;;;3.70;1.30;;;4.10;99.90;;;;;;5004126;28;20513;-63
2024/01/14 12:08:13;;;;;;;2.73;2.53;;;4.20;99.90;;;;;;5003602;28;20546;-64
2024/01/14 12:10:41;;;;;;;3.27;1.57;;;4.20;99.90;;;;;;5000866;28;20961;-63
2024/01/14 12:13:11;;;;;;;8.50;1.90;;;4.20;99.90;;;;;;5001966;28;20479;-64
2024/01/14 12:15:39;;;;;;;4.27;1.63;;;4.30;99.90;;;;;;4999089;28;20938;-63
2024/01/14 12:18:15;;;;;;;3.03;1.77;;;4.40;99.90;;;;;;4998258;28;20598;-63
2024/01/14 12:20:44;;;;;;;4.47;1.93;;;4.50;99.90;;;;;;5005637;28;20498;-64
2024/01/14 12:23:12;;;;;;;3.90;1.70;;;4.50;99.90;;;;;;5004703;28;20574;-64
2024/01/14 12:25:40;;;;;;;3.70;1.50;;;4.60;99.90;;;;;;5009323;28;20821;-63
2024/01/14 12:28:08;;;;;;;3.50;1.70;;;4.60;99.90;;;;;;5001376;28;20792;-64
2024/01/14 12:30:37;;;;;;;2.97;1.57;;;4.70;99.90;;;;;;5001745;28;20738;-63
2024/01/14 12:33:08;;;;;;;4.63;1.90;;;4.70;99.90;;;;;;5003367;28;20479;-64
2024/01/14 12:35:37;;;;;;;2.97;1.60;;;4.80;99.90;;;;;;5005397;28;20976;-64
2024/01/14 12:38:07;;;;;;;2.77;1.63;;;4.80;99.90;;;;;;5003719;28;20547;-64
2024/01/14 12:40:36;;;;;;;4.20;2.00;;;4.70;99.90;;;;;;4994418;28;20521;-63
2024/01/14 12:43:06;;;;;;;5.27;1.90;;;4.70;99.90;;;;;;5000984;28;20535;-63
2024/01/14 12:45:34;;;;;;;3.87;2.17;;;4.70;99.90;;;;;;4990976;28;20609;-64
2024/01/14 12:48:05;;;;;;;4.20;1.80;;;4.60;99.90;;;;;;5001808;28;20479;-62
2024/01/14 12:50:37;;;;;;;7.70;4.13;;;4.70;99.90;;;;;;5012964;28;20573;-64
2024/01/14 12:53:07;;;;;;;3.80;1.90;;;4.60;99.90;;;;;;4999927;28;20471;-63
2024/01/14 12:55:36;;;;;;;5.00;2.13;;;4.60;99.90;;;;;;5002223;28;20498;-63
2024/01/14 12:58:04;;;;;;;3.43;1.80;;;4.60;99.90;;;;;;4992800;28;20474;-63
2024/01/14 13:00:33;;;;;;;3.33;1.90;;;4.60;99.90;;;;;;4997094;28;20515;-63
2024/01/14 13:03:01;;;;;;;7.30;2.50;;;4.60;99.90;;;;;;5009846;28;20544;-64
2024/01/14 13:05:31;;;;;;;2.47;1.90;;;4.50;99.90;;;;;;5002137;28;20614;-62
2024/01/14 13:08:00;;;;;;;3.33;1.90;;;4.50;99.90;;;;;;5003769;28;20478;-63